createdAt,value
2023-02-28T00:01:54.678Z,5.75
2023-02-28T00:03:57.476Z,4.68
2023-02-28T00:06:00.154Z,4.35
2023-02-28T00:08:02.996Z,5.25
2023-02-28T00:10:09.409Z,4.55
2023-02-28T00:12:12.123Z,4.65
2023-02-28T00:14:14.794Z,4.53
2023-02-28T00:16:20.089Z,5.80
2023-02-28T00:18:22.775Z,4.15
2023-02-28T00:20:26.346Z,5.10
2023-02-28T00:22:29.215Z,5.18
2023-02-28T00:24:31.906Z,4.72
2023-02-28T00:26:35.953Z,6.30
2023-02-28T00:28:38.613Z,6.65
2023-02-28T00:30:41.350Z,4.97
2023-02-28T00:32:44.475Z,6.70
2023-02-28T00:34:47.161Z,5.18
2023-02-28T00:36:50.841Z,5.03
2023-02-28T00:38:54.092Z,4.82
2023-02-28T00:40:56.780Z,5.35
2023-02-28T00:43:00.832Z,5.80
2023-02-28T00:45:05.483Z,5.38
2023-02-28T00:47:08.193Z,4.63
2023-02-28T00:49:10.850Z,7.28
2023-02-28T00:51:13.438Z,4.47
2023-02-28T00:53:16.042Z,5.68
2023-02-28T00:55:19.490Z,8.48
2023-02-28T00:57:22.174Z,5.82
2023-02-28T00:59:26.096Z,4.60
2023-02-28T01:01:29.020Z,5.38
2023-02-28T01:03:31.857Z,6.38
2023-02-28T01:05:34.488Z,5.85
2023-02-28T01:07:37.109Z,7.90
2023-02-28T01:09:39.729Z,7.97
2023-02-28T01:11:44.917Z,5.32
2023-02-28T01:13:48.507Z,7.65
2023-02-28T01:15:54.492Z,6.60
2023-02-28T01:17:57.103Z,5.57
2023-02-28T01:19:59.862Z,5.38
2023-02-28T01:22:03.651Z,5.90
2023-02-28T01:24:07.949Z,5.93
2023-02-28T01:26:13.169Z,4.93
2023-02-28T01:28:15.786Z,6.82
2023-02-28T01:30:18.658Z,6.05
2023-02-28T01:32:22.691Z,5.88
2023-02-28T01:34:25.356Z,7.15
2023-02-28T01:36:28.347Z,6.20
2023-02-28T01:38:31.372Z,5.95
2023-02-28T01:40:34.035Z,7.47
2023-02-28T01:42:36.626Z,5.68
2023-02-28T01:45:18.731Z,6.20
2023-02-28T01:47:24.156Z,7.25
2023-02-28T01:49:26.808Z,6.22
2023-02-28T01:51:34.131Z,7.22
2023-02-28T01:53:40.894Z,5.78
2023-02-28T01:55:46.945Z,6.90
2023-02-28T01:57:53.939Z,5.65
2023-02-28T02:00:00.502Z,5.00
2023-02-28T02:02:04.403Z,5.72
2023-02-28T02:04:08.443Z,7.28
2023-02-28T02:06:11.124Z,8.95
2023-02-28T02:08:16.189Z,7.88
2023-02-28T02:10:20.558Z,5.15
2023-02-28T02:12:34.304Z,5.28
2023-02-28T02:14:49.610Z,7.55
2023-02-28T02:17:06.807Z,6.85
2023-02-28T02:19:28.481Z,5.40
2023-02-28T02:21:54.858Z,7.70
2023-02-28T02:24:34.456Z,7.82
2023-02-28T02:26:57.694Z,7.95
2023-02-28T02:29:26.675Z,6.40
2023-02-28T02:31:54.626Z,6.80
2023-02-28T02:34:31.322Z,6.38
2023-02-28T02:36:38.294Z,7.47
2023-02-28T02:38:50.147Z,6.32
2023-02-28T02:41:01.090Z,6.68
2023-02-28T02:43:09.235Z,7.47
2023-02-28T02:45:17.208Z,6.70
2023-02-28T02:47:23.815Z,7.35
2023-02-28T02:49:32.778Z,7.93
2023-02-28T02:51:37.192Z,8.27
2023-02-28T02:53:44.170Z,7.00
2023-02-28T02:55:53.978Z,7.40
2023-02-28T02:58:01.447Z,6.55
2023-02-28T03:00:06.134Z,7.43
2023-02-28T03:02:14.245Z,6.22
2023-02-28T03:04:21.106Z,6.20
2023-02-28T03:06:25.195Z,7.60
2023-02-28T03:08:29.086Z,7.65
2023-02-28T03:10:36.068Z,6.90
2023-02-28T03:12:48.601Z,7.00
2023-02-28T03:15:02.138Z,6.65
2023-02-28T03:17:37.767Z,6.65
2023-02-28T03:19:51.492Z,6.65
2023-02-28T03:22:09.328Z,6.75
2023-02-28T03:24:17.525Z,6.50
2023-02-28T03:26:23.866Z,7.15
2023-02-28T03:28:34.226Z,6.13
2023-02-28T03:30:43.655Z,8.90
2023-02-28T03:32:55.041Z,8.45
2023-02-28T03:35:04.583Z,9.85
2023-02-28T03:37:14.362Z,7.68
2023-02-28T03:39:22.623Z,7.00
2023-02-28T03:41:29.734Z,8.65
2023-02-28T03:43:38.869Z,8.10
2023-02-28T03:45:45.928Z,7.82
2023-02-28T03:47:53.928Z,8.35
2023-02-28T03:50:01.170Z,6.25
2023-02-28T03:52:08.118Z,7.65
2023-02-28T03:54:17.830Z,8.20
2023-02-28T03:56:23.841Z,6.10
2023-02-28T03:58:31.528Z,7.28
2023-02-28T04:00:39.538Z,7.30
2023-02-28T04:02:42.282Z,10.07
2023-02-28T04:04:49.480Z,6.75
2023-02-28T04:06:53.187Z,8.25
2023-02-28T04:08:55.887Z,8.57
2023-02-28T04:11:05.779Z,7.53
2023-02-28T04:13:08.496Z,7.70
2023-02-28T04:15:12.282Z,8.60
2023-02-28T04:17:14.954Z,6.80
2023-02-28T04:19:17.591Z,7.55
2023-02-28T04:21:22.045Z,9.38
2023-02-28T04:23:24.731Z,7.78
2023-02-28T04:25:27.438Z,6.85
2023-02-28T04:27:32.790Z,6.55
2023-02-28T04:29:35.508Z,7.95
2023-02-28T04:31:38.255Z,10.25
2023-02-28T04:33:40.932Z,9.32
2023-02-28T04:35:43.536Z,7.43
2023-02-28T04:37:46.211Z,12.63
2023-02-28T04:39:48.886Z,8.10
2023-02-28T04:41:52.415Z,8.65
2023-02-28T04:43:56.914Z,8.02
2023-02-28T04:46:03.093Z,7.75
2023-02-28T04:48:06.341Z,8.70
2023-02-28T04:50:10.290Z,7.65
2023-02-28T04:52:14.287Z,9.98
2023-02-28T04:54:17.038Z,7.60
2023-02-28T04:56:20.151Z,8.02
2023-02-28T04:58:24.050Z,7.55
2023-02-28T05:00:28.045Z,9.25
2023-02-28T05:02:32.351Z,8.45
2023-02-28T05:04:36.095Z,9.68
2023-02-28T05:06:38.822Z,10.52
2023-02-28T05:08:41.718Z,8.43
2023-02-28T05:10:44.319Z,8.80
2023-02-28T05:12:47.392Z,8.43
2023-02-28T05:14:50.291Z,7.95
2023-02-28T05:16:54.336Z,8.23
2023-02-28T05:18:57.052Z,8.10
2023-02-28T05:20:59.683Z,9.82
2023-02-28T05:23:04.366Z,9.60
2023-02-28T05:25:08.075Z,10.95
2023-02-28T05:27:11.537Z,8.35
2023-02-28T05:29:14.187Z,12.82
2023-02-28T05:31:17.290Z,9.68
2023-02-28T05:33:21.395Z,8.85
2023-02-28T05:35:24.291Z,7.53
2023-02-28T05:37:27.047Z,9.05
2023-02-28T05:39:29.829Z,6.55
2023-02-28T05:41:32.752Z,8.38
2023-02-28T05:43:35.759Z,8.45
2023-02-28T05:45:38.590Z,7.70
2023-02-28T05:47:41.268Z,12.32
2023-02-28T05:49:45.277Z,9.85
2023-02-28T05:51:47.899Z,11.85
2023-02-28T05:53:50.571Z,10.73
2023-02-28T05:55:53.141Z,9.35
2023-02-28T05:57:55.778Z,11.65
2023-02-28T05:59:58.387Z,9.52
2023-02-28T06:02:01.270Z,8.95
2023-02-28T06:04:05.604Z,11.00
2023-02-28T06:06:09.564Z,11.10
2023-02-28T06:08:12.211Z,7.28
2023-02-28T06:10:15.698Z,12.00
2023-02-28T06:12:18.498Z,10.63
2023-02-28T06:14:22.844Z,10.02
2023-02-28T06:16:26.306Z,9.50
2023-02-28T06:18:28.952Z,11.15
2023-02-28T06:20:31.819Z,10.27
2023-02-28T06:22:36.611Z,7.53
2023-02-28T06:24:39.304Z,9.60
2023-02-28T06:26:41.964Z,8.98
2023-02-28T06:28:44.549Z,9.75
2023-02-28T06:30:47.147Z,11.52
2023-02-28T06:32:50.453Z,9.05
2023-02-28T06:34:53.181Z,11.25
2023-02-28T06:36:55.974Z,10.88
2023-02-28T06:38:59.924Z,11.70
2023-02-28T06:41:03.321Z,13.85
2023-02-28T06:43:06.049Z,10.20
2023-02-28T06:45:10.662Z,9.60
2023-02-28T06:47:13.370Z,10.93
2023-02-28T06:49:16.926Z,11.13
2023-02-28T06:51:23.318Z,10.13
2023-02-28T06:53:26.183Z,13.55
2023-02-28T06:55:30.807Z,12.32
2023-02-28T06:57:35.218Z,10.30
2023-02-28T06:59:37.985Z,10.63
2023-02-28T07:01:41.086Z,11.95
2023-02-28T07:03:43.801Z,9.95
2023-02-28T07:05:46.899Z,13.48
2023-02-28T07:07:49.587Z,12.52
2023-02-28T07:09:52.233Z,10.13
2023-02-28T07:11:56.140Z,12.45
2023-02-28T07:13:59.442Z,11.00
2023-02-28T07:16:04.891Z,10.60
2023-02-28T07:18:07.562Z,10.98
2023-02-28T07:20:11.381Z,11.48
2023-02-28T07:22:15.864Z,10.45
2023-02-28T07:24:19.011Z,9.43
2023-02-28T07:26:22.352Z,9.77
2023-02-28T07:28:27.080Z,10.10
2023-02-28T07:30:29.847Z,8.90
2023-02-28T07:32:32.457Z,10.93
2023-02-28T07:34:35.144Z,10.40
2023-02-28T07:36:37.730Z,10.70
2023-02-28T07:38:40.440Z,11.70
2023-02-28T07:40:43.112Z,11.43
2023-02-28T07:42:46.214Z,12.02
2023-02-28T07:44:52.378Z,13.05
2023-02-28T07:46:55.089Z,12.32
2023-02-28T07:49:00.402Z,10.70
2023-02-28T07:51:03.517Z,9.23
2023-02-28T07:53:06.333Z,12.35
2023-02-28T07:55:11.182Z,12.73
2023-02-28T07:57:13.779Z,9.00
2023-02-28T07:59:16.427Z,12.85
2023-02-28T08:01:20.452Z,12.32
2023-02-28T08:03:24.812Z,11.38
2023-02-28T08:05:27.513Z,11.20
2023-02-28T08:07:30.479Z,11.88
2023-02-28T08:09:33.108Z,13.68
2023-02-28T08:11:35.780Z,9.55
2023-02-28T08:13:38.445Z,9.80
2023-02-28T08:15:42.703Z,10.45
2023-02-28T08:17:46.642Z,10.98
2023-02-28T08:19:49.428Z,11.45
2023-02-28T08:21:52.082Z,11.73
2023-02-28T08:23:54.699Z,13.00
2023-02-28T08:25:57.692Z,13.45
2023-02-28T08:28:00.310Z,10.68
2023-02-28T08:30:04.019Z,14.43
2023-02-28T08:32:12.566Z,13.32
2023-02-28T08:34:24.470Z,12.05
2023-02-28T08:36:29.598Z,11.55
2023-02-28T08:38:32.536Z,12.45
2023-02-28T08:40:35.274Z,12.32
2023-02-28T08:42:38.145Z,10.02
2023-02-28T08:44:41.470Z,12.68
2023-02-28T08:46:44.105Z,14.35
2023-02-28T08:48:46.900Z,14.73
2023-02-28T08:51:06.853Z,11.27
2023-02-28T08:53:10.095Z,11.23
2023-02-28T08:55:12.736Z,10.60
2023-02-28T08:57:15.375Z,14.98
2023-02-28T08:59:19.098Z,11.93
2023-02-28T09:01:24.028Z,11.60
2023-02-28T09:03:27.932Z,14.50
2023-02-28T09:05:30.893Z,14.13
2023-02-28T09:07:34.895Z,13.45
2023-02-28T09:09:37.529Z,12.40
2023-02-28T09:11:40.131Z,12.77
2023-02-28T09:13:42.883Z,13.63
2023-02-28T09:15:45.937Z,12.68
2023-02-28T09:17:48.818Z,12.20
2023-02-28T09:19:51.685Z,15.07
2023-02-28T09:21:54.398Z,14.25
2023-02-28T09:23:58.502Z,12.55
2023-02-28T09:26:01.127Z,12.68
2023-02-28T09:28:04.386Z,13.30
2023-02-28T09:30:08.521Z,12.85
2023-02-28T09:32:11.241Z,11.48
2023-02-28T09:34:14.001Z,13.30
2023-02-28T09:36:16.700Z,12.75
2023-02-28T09:38:19.590Z,11.10
2023-02-28T09:40:26.657Z,12.18
2023-02-28T09:44:41.932Z,9.55
2023-02-28T09:46:49.120Z,11.80
2023-02-28T09:48:53.246Z,10.20
2023-02-28T09:51:02.886Z,9.88
2023-02-28T09:53:12.280Z,13.15
2023-02-28T09:55:32.752Z,11.68
2023-02-28T09:57:40.951Z,10.75
2023-02-28T09:59:59.930Z,8.57
2023-02-28T10:04:16.243Z,13.80
2023-02-28T10:06:21.923Z,11.85
2023-02-28T10:08:30.707Z,14.52
2023-02-28T10:10:41.301Z,12.75
2023-02-28T10:12:46.778Z,10.73
2023-02-28T10:14:53.361Z,12.90
2023-02-28T10:16:59.933Z,12.77
2023-02-28T10:19:06.487Z,10.70
2023-02-28T10:21:19.248Z,12.85
2023-02-28T10:23:25.423Z,13.63
2023-02-28T10:25:30.448Z,13.73
2023-02-28T10:27:34.832Z,12.32
2023-02-28T10:29:37.499Z,13.68
2023-02-28T10:31:41.131Z,9.77
2023-02-28T10:33:43.863Z,11.88
2023-02-28T10:35:46.890Z,11.77
2023-02-28T10:37:52.100Z,12.50
2023-02-28T10:39:54.858Z,12.02
2023-02-28T10:41:57.517Z,13.05
2023-02-28T10:44:19.878Z,11.55
2023-02-28T10:46:27.758Z,13.68
2023-02-28T10:48:39.921Z,12.95
2023-02-28T10:50:46.682Z,12.25
2023-02-28T10:52:49.575Z,13.20
2023-02-28T10:55:12.819Z,12.05
2023-02-28T10:57:20.471Z,14.90
2023-02-28T10:59:32.887Z,12.50
2023-02-28T11:01:40.855Z,12.13
2023-02-28T11:03:43.730Z,12.00
2023-02-28T11:05:47.098Z,11.32
2023-02-28T11:07:54.063Z,13.68
2023-02-28T11:12:00.353Z,13.13
2023-02-28T11:14:07.484Z,10.05
2023-02-28T11:16:14.066Z,12.80
2023-02-28T11:18:30.871Z,13.77
2023-02-28T11:20:35.795Z,14.15
2023-02-28T11:22:45.375Z,13.98
2023-02-28T11:24:51.192Z,14.10
2023-02-28T11:26:54.099Z,13.30
2023-02-28T11:29:10.756Z,14.35
2023-02-28T11:31:23.228Z,13.45
2023-02-28T11:33:29.620Z,12.05
2023-02-28T11:35:36.898Z,12.50
2023-02-28T11:37:41.496Z,11.68
2023-02-28T11:39:44.896Z,12.95
2023-02-28T11:42:03.436Z,16.90
2023-02-28T11:44:34.115Z,14.13
2023-02-28T11:46:46.046Z,13.43
2023-02-28T11:49:02.608Z,13.18
2023-02-28T11:51:15.718Z,13.65
2023-02-28T11:53:27.415Z,12.55
2023-02-28T11:55:37.796Z,12.60
2023-02-28T11:57:58.147Z,13.73
2023-02-28T12:00:10.693Z,11.50
2023-02-28T12:02:27.381Z,11.32
2023-02-28T12:04:41.979Z,9.98
2023-02-28T12:06:51.984Z,12.68
2023-02-28T12:09:07.238Z,14.88
2023-02-28T12:11:20.885Z,13.73
2023-02-28T12:13:29.115Z,10.48
2023-02-28T12:15:57.265Z,12.20
2023-02-28T12:18:24.263Z,10.88
2023-02-28T12:20:36.367Z,12.93
2023-02-28T12:22:52.175Z,10.32
2023-02-28T12:25:19.078Z,9.77
2023-02-28T12:27:26.027Z,10.35
2023-02-28T12:29:35.105Z,11.82
2023-02-28T12:31:40.796Z,12.90
2023-02-28T12:33:50.160Z,13.93
2023-02-28T12:35:57.939Z,11.88
2023-02-28T12:38:05.768Z,10.60
2023-02-28T12:40:16.063Z,12.80
2023-02-28T12:42:26.070Z,10.88
2023-02-28T12:44:33.295Z,12.48
2023-02-28T12:46:41.781Z,12.93
2023-02-28T12:48:50.084Z,12.68
2023-02-28T12:50:53.134Z,12.02
2023-02-28T12:53:02.655Z,11.80
2023-02-28T12:55:10.133Z,11.52
2023-02-28T12:57:17.367Z,11.65
2023-02-28T12:59:27.936Z,10.77
2023-02-28T13:01:45.118Z,13.23
2023-02-28T13:04:16.572Z,10.40
2023-02-28T13:06:47.545Z,12.20
2023-02-28T13:09:02.999Z,12.40
2023-02-28T13:11:13.173Z,12.43
2023-02-28T13:13:25.438Z,11.52
2023-02-28T13:15:29.767Z,11.68
2023-02-28T13:17:32.656Z,10.52
2023-02-28T13:19:38.824Z,12.50
2023-02-28T13:21:46.573Z,11.77
2023-02-28T13:24:04.077Z,11.38
2023-02-28T13:26:06.672Z,12.57
2023-02-28T13:28:12.801Z,13.82
2023-02-28T13:30:52.637Z,12.98
2023-02-28T13:33:24.019Z,12.23
2023-02-28T13:35:49.039Z,12.90
2023-02-28T13:37:52.832Z,12.73
2023-02-28T13:40:00.977Z,10.70
2023-02-28T13:42:25.644Z,12.98
2023-02-28T13:46:31.667Z,12.52
2023-02-28T13:48:34.356Z,12.80
2023-02-28T13:50:39.067Z,11.32
2023-02-28T13:52:50.683Z,10.45
2023-02-28T13:55:23.839Z,11.60
2023-02-28T13:57:39.552Z,10.05
2023-02-28T13:59:51.504Z,13.75
2023-02-28T14:02:05.005Z,11.15
2023-02-28T14:04:39.684Z,11.15
2023-02-28T14:06:50.358Z,11.88
2023-02-28T14:09:00.726Z,11.55
2023-02-28T14:11:07.771Z,14.52
2023-02-28T14:13:34.010Z,11.60
2023-02-28T14:15:49.715Z,11.82
2023-02-28T14:17:53.578Z,12.18
2023-02-28T14:19:56.782Z,12.10
2023-02-28T14:22:15.252Z,14.25
2023-02-28T14:24:40.776Z,11.38
2023-02-28T14:27:04.915Z,12.82
2023-02-28T14:29:25.441Z,14.68
2023-02-28T14:31:36.113Z,12.90
2023-02-28T14:34:04.584Z,10.95
2023-02-28T14:36:15.696Z,11.45
2023-02-28T14:38:23.597Z,10.57
2023-02-28T14:40:31.669Z,11.05
2023-02-28T14:42:36.510Z,12.13
2023-02-28T14:44:39.655Z,12.10
2023-02-28T14:46:44.584Z,9.25
2023-02-28T14:48:48.104Z,14.63
2023-02-28T14:50:52.997Z,11.57
2023-02-28T14:52:56.985Z,12.38
2023-02-28T14:55:01.252Z,12.18
2023-02-28T14:57:06.002Z,13.23
2023-02-28T14:59:26.877Z,12.32
2023-02-28T15:01:29.603Z,11.82
2023-02-28T15:03:34.423Z,11.20
2023-02-28T15:05:37.085Z,9.82
2023-02-28T15:07:40.123Z,13.18
2023-02-28T15:09:43.458Z,11.65
2023-02-28T15:11:50.269Z,12.73
2023-02-28T15:13:56.384Z,10.05
2023-02-28T15:16:04.270Z,15.23
2023-02-28T15:18:07.922Z,11.80
2023-02-28T15:20:15.609Z,11.52
2023-02-28T15:22:22.478Z,12.40
2023-02-28T15:24:33.757Z,12.88
2023-02-28T15:26:40.933Z,11.60
2023-02-28T15:28:43.580Z,12.45
2023-02-28T15:30:57.016Z,13.00
2023-02-28T15:33:12.443Z,12.55
2023-02-28T15:35:28.858Z,13.38
2023-02-28T15:37:40.233Z,11.82
2023-02-28T15:39:45.768Z,12.20
2023-02-28T15:41:48.569Z,10.60
2023-02-28T15:43:51.299Z,11.90
2023-02-28T15:45:59.703Z,10.23
2023-02-28T15:48:13.729Z,12.77
2023-02-28T15:50:17.033Z,12.57
2023-02-28T15:52:22.611Z,11.40
2023-02-28T15:54:29.407Z,12.82
2023-02-28T15:56:34.314Z,12.40
2023-02-28T15:58:38.071Z,14.50
2023-02-28T16:00:41.611Z,12.15
2023-02-28T16:02:46.809Z,12.48
2023-02-28T16:05:20.072Z,14.40
2023-02-28T16:07:22.880Z,12.52
2023-02-28T16:09:25.644Z,11.93
2023-02-28T16:11:28.905Z,12.52
2023-02-28T16:13:31.764Z,11.60
2023-02-28T16:15:42.493Z,13.07
2023-02-28T16:17:47.572Z,11.50
2023-02-28T16:19:50.491Z,13.95
2023-02-28T16:21:53.137Z,12.48
2023-02-28T16:23:55.781Z,12.05
2023-02-28T16:25:58.579Z,14.15
2023-02-28T16:28:01.626Z,13.05
2023-02-28T16:30:06.026Z,14.80
2023-02-28T16:32:09.107Z,12.00
2023-02-28T16:34:13.192Z,10.95
2023-02-28T16:36:17.756Z,13.80
2023-02-28T16:38:20.568Z,13.10
2023-02-28T16:40:26.263Z,12.05
2023-02-28T16:42:30.464Z,12.00
2023-02-28T16:44:36.914Z,13.52
2023-02-28T16:46:39.551Z,13.90
2023-02-28T16:48:42.397Z,12.20
2023-02-28T16:50:46.464Z,13.68
2023-02-28T16:52:50.334Z,17.30
2023-02-28T16:54:53.085Z,14.05
2023-02-28T16:56:55.723Z,12.60
2023-02-28T16:59:02.461Z,12.70
2023-02-28T17:01:05.387Z,16.10
2023-02-28T17:03:32.674Z,12.85
2023-02-28T17:05:40.596Z,12.45
2023-02-28T17:07:45.344Z,13.27
2023-02-28T17:09:47.977Z,12.00
2023-02-28T17:11:50.920Z,14.13
2023-02-28T17:13:54.790Z,12.93
2023-02-28T17:15:57.622Z,13.85
2023-02-28T17:18:00.363Z,16.30
2023-02-28T17:20:03.884Z,15.88
2023-02-28T17:22:06.494Z,14.80
2023-02-28T17:24:16.619Z,12.27
2023-02-28T17:26:25.557Z,15.55
2023-02-28T17:28:28.134Z,13.75
2023-02-28T17:30:30.863Z,16.83
2023-02-28T17:32:33.564Z,14.77
2023-02-28T17:34:36.378Z,13.63
2023-02-28T17:36:39.350Z,15.57
2023-02-28T17:38:41.984Z,14.50
2023-02-28T17:40:46.511Z,12.80
2023-02-28T17:42:49.647Z,14.65
2023-02-28T17:44:52.281Z,16.85
2023-02-28T17:46:56.802Z,14.77
2023-02-28T17:48:59.486Z,16.10
2023-02-28T17:51:02.098Z,18.75
2023-02-28T17:53:04.753Z,15.32
2023-02-28T17:55:08.195Z,13.88
2023-02-28T17:57:16.316Z,14.63
2023-02-28T17:59:19.064Z,14.90
2023-02-28T18:01:22.125Z,15.38
2023-02-28T18:03:25.166Z,17.48
2023-02-28T18:05:28.014Z,14.32
2023-02-28T18:07:30.676Z,15.35
2023-02-28T18:09:33.351Z,15.27
2023-02-28T18:11:45.937Z,15.18
2023-02-28T18:13:51.835Z,14.63
2023-02-28T18:15:54.534Z,17.20
2023-02-28T18:17:57.202Z,15.25
2023-02-28T18:20:00.267Z,15.32
2023-02-28T18:22:02.942Z,15.00
2023-02-28T18:24:06.114Z,14.10
2023-02-28T18:26:09.566Z,20.88
2023-02-28T18:28:12.177Z,14.90
2023-02-28T18:30:16.688Z,14.98
2023-02-28T18:32:19.511Z,14.38
2023-02-28T18:34:22.692Z,15.50
2023-02-28T18:36:25.917Z,15.48
2023-02-28T18:38:29.160Z,15.70
2023-02-28T18:40:32.209Z,15.13
2023-02-28T18:42:34.909Z,15.75
2023-02-28T18:44:38.248Z,15.43
2023-02-28T18:46:42.342Z,14.65
2023-02-28T18:48:45.223Z,20.77
2023-02-28T18:50:48.165Z,15.25
2023-02-28T18:52:51.440Z,17.08
2023-02-28T18:54:54.102Z,18.63
2023-02-28T18:56:56.792Z,18.88
2023-02-28T18:58:59.539Z,17.20
2023-02-28T19:01:03.007Z,17.00
2023-02-28T19:03:07.280Z,18.55
2023-02-28T19:05:12.113Z,17.85
2023-02-28T19:07:14.859Z,15.13
2023-02-28T19:09:17.592Z,13.75
2023-02-28T19:11:20.566Z,16.58
2023-02-28T19:13:23.318Z,20.40
2023-02-28T19:15:25.957Z,15.75
2023-02-28T19:17:28.578Z,14.15
2023-02-28T19:19:32.718Z,16.05
2023-02-28T19:21:36.577Z,16.95
2023-02-28T19:23:40.686Z,16.95
2023-02-28T19:25:43.429Z,15.75
2023-02-28T19:27:46.049Z,16.42
2023-02-28T19:29:49.682Z,18.58
2023-02-28T19:31:53.336Z,16.02
2023-02-28T19:33:57.874Z,16.17
2023-02-28T19:36:02.874Z,15.95
2023-02-28T19:38:05.513Z,16.23
2023-02-28T19:40:09.826Z,17.98
2023-02-28T19:42:14.683Z,17.02
2023-02-28T19:44:17.303Z,17.52
2023-02-28T19:46:20.270Z,13.70
2023-02-28T19:48:26.086Z,13.88
2023-02-28T19:50:28.779Z,17.73
2023-02-28T19:52:32.818Z,16.38
2023-02-28T19:54:35.878Z,14.90
2023-02-28T19:56:38.535Z,14.50
2023-02-28T19:58:41.500Z,17.08
2023-02-28T20:00:44.162Z,17.95
2023-02-28T20:02:46.816Z,15.85
2023-02-28T20:04:50.460Z,15.77
2023-02-28T20:06:53.167Z,17.38
2023-02-28T20:08:57.150Z,17.52
2023-02-28T20:11:04.100Z,16.92
2023-02-28T20:15:10.478Z,15.70
2023-02-28T20:17:13.112Z,15.98
2023-02-28T20:19:15.862Z,13.75
2023-02-28T20:21:19.318Z,16.90
2023-02-28T20:23:21.986Z,14.25
2023-02-28T20:25:26.016Z,16.23
2023-02-28T20:27:29.337Z,19.40
2023-02-28T20:29:32.171Z,17.25
2023-02-28T20:31:37.459Z,20.55
2023-02-28T20:33:40.206Z,17.10
2023-02-28T20:35:43.000Z,16.55
2023-02-28T20:37:45.664Z,17.70
2023-02-28T20:39:49.591Z,17.20
2023-02-28T20:41:53.589Z,15.00
2023-02-28T20:43:58.139Z,18.75
2023-02-28T20:46:02.959Z,18.45
2023-02-28T20:48:05.944Z,20.02
2023-02-28T20:50:10.577Z,18.13
2023-02-28T20:52:13.182Z,16.20
2023-02-28T20:54:16.232Z,16.42
2023-02-28T20:56:21.266Z,15.93
2023-02-28T20:58:26.642Z,14.00
2023-02-28T21:00:29.345Z,14.70
2023-02-28T21:02:32.086Z,18.02
2023-02-28T21:04:35.670Z,16.00
2023-02-28T21:06:42.830Z,19.65
2023-02-28T21:08:45.612Z,17.73
2023-02-28T21:10:48.315Z,15.50
2023-02-28T21:12:54.506Z,14.50
2023-02-28T21:14:58.591Z,16.80
2023-02-28T21:17:01.330Z,18.40
2023-02-28T21:19:04.916Z,18.20
2023-02-28T21:21:09.689Z,17.70
2023-02-28T21:23:12.385Z,16.55
2023-02-28T21:25:15.787Z,15.52
2023-02-28T21:27:18.406Z,15.88
2023-02-28T21:29:21.175Z,15.27
2023-02-28T21:31:27.190Z,18.83
2023-02-28T21:33:30.354Z,17.98
2023-02-28T21:35:33.109Z,18.40
2023-02-28T21:37:38.459Z,16.45
2023-02-28T21:39:41.057Z,14.95
2023-02-28T21:41:43.728Z,17.60
2023-02-28T21:43:48.741Z,14.43
2023-02-28T21:45:51.317Z,19.40
2023-02-28T21:47:55.337Z,16.15
2023-02-28T21:49:58.384Z,17.13
2023-02-28T21:52:01.108Z,15.75
2023-02-28T21:54:03.980Z,18.92
2023-02-28T21:56:09.085Z,17.73
2023-02-28T21:58:14.231Z,16.98
2023-02-28T22:00:17.341Z,18.15
2023-02-28T22:02:20.176Z,14.48
2023-02-28T22:04:24.372Z,17.30
2023-02-28T22:06:28.945Z,16.85
2023-02-28T22:08:31.707Z,16.15
2023-02-28T22:10:35.090Z,18.05
2023-02-28T22:12:37.762Z,16.33
2023-02-28T22:14:41.607Z,18.80
2023-02-28T22:16:54.517Z,17.38
2023-02-28T22:18:58.404Z,19.75
2023-02-28T22:21:02.516Z,18.52
2023-02-28T22:23:05.258Z,18.40
2023-02-28T22:25:09.595Z,18.80
2023-02-28T22:27:12.309Z,18.55
2023-02-28T22:29:15.070Z,19.17
2023-02-28T22:31:19.773Z,17.52
2023-02-28T22:33:22.908Z,20.17
2023-02-28T22:35:25.882Z,19.25
2023-02-28T22:37:30.166Z,19.80
2023-02-28T22:39:32.850Z,18.67
2023-02-28T22:41:35.502Z,17.80
2023-02-28T22:43:38.343Z,18.15
2023-02-28T22:45:42.422Z,19.50
2023-02-28T22:47:45.057Z,18.50
2023-02-28T22:49:47.710Z,16.05
2023-02-28T22:51:50.373Z,17.42
2023-02-28T22:53:56.080Z,20.67
2023-02-28T22:55:58.795Z,19.55
2023-02-28T22:58:01.400Z,16.30
2023-02-28T23:00:06.905Z,20.77
2023-02-28T23:02:09.628Z,19.25
2023-02-28T23:04:13.533Z,18.98
2023-02-28T23:06:19.028Z,18.52
2023-02-28T23:08:22.982Z,18.67
2023-02-28T23:10:26.968Z,18.20
2023-02-28T23:12:30.263Z,18.80
2023-02-28T23:14:33.448Z,23.15
2023-02-28T23:16:38.627Z,16.80
2023-02-28T23:18:41.356Z,15.75
2023-02-28T23:20:43.986Z,18.05
2023-02-28T23:22:50.522Z,20.55
2023-02-28T23:24:54.397Z,18.70
2023-02-28T23:27:00.450Z,18.13
2023-02-28T23:29:03.167Z,17.48
2023-02-28T23:31:06.153Z,20.40
2023-02-28T23:33:08.857Z,20.08
2023-02-28T23:35:12.267Z,20.88
2023-02-28T23:37:14.972Z,19.25
2023-02-28T23:39:18.539Z,18.65
2023-02-28T23:41:23.257Z,18.08
2023-02-28T23:43:28.580Z,18.30
2023-02-28T23:45:31.230Z,19.23
2023-02-28T23:47:33.838Z,19.52
2023-02-28T23:49:36.542Z,21.33
2023-02-28T23:51:39.622Z,22.27
2023-02-28T23:53:43.827Z,18.02
2023-02-28T23:55:48.012Z,22.00
2023-02-28T23:57:50.626Z,20.25
2023-02-28T23:59:54.790Z,18.02
